Time;durP1;ratioP1;P1;durP2;ratioP2;P2;SDS_P1;SDS_P2;PMS_P1;PMS_P2;Temp;Humidity;BMP_temperature;BMP_pressure;BME280_temperature;BME280_humidity;BME280_pressure;Samples;Min_cycle;Max_cycle;Signal;HPM_P1;HPM_P2
2020/01/17 00:00:51;;;;;;;28.2;20.5;;;;;;;3.79;71.02051;967.5831;;;;
2020/01/17 00:03:16;;;;;;;30.5;21.4;;;;;;;3.67;70.78223;967.5666;;;;
2020/01/17 00:05:41;;;;;;;30.9;21.2;;;;;;;3.68;71.31445;967.4906;;;;
2020/01/17 00:08:07;;;;;;;30.7;20.8;;;;;;;3.6;71.60059;967.4835;;;;
2020/01/17 00:10:32;;;;;;;29.5;21;;;;;;;3.74;70.94336;967.467;;;;
2020/01/17 00:12:57;;;;;;;26.8;19.8;;;;;;;3.77;71.00684;967.459;;;;
2020/01/17 00:15:22;;;;;;;29.2;20.7;;;;;;;3.76;70.58887;967.4433;;;;
2020/01/17 00:17:47;;;;;;;29.9;20.8;;;;;;;3.68;70.70117;967.4747;;;;
2020/01/17 00:20:12;;;;;;;29.1;19.9;;;;;;;3.75;71.17578;967.4137;;;;
2020/01/17 00:22:37;;;;;;;27.8;20.2;;;;;;;3.77;72.04297;967.4713;;;;
2020/01/17 00:25:03;;;;;;;29.9;21.7;;;;;;;3.62;72.65332;967.4686;;;;
2020/01/17 00:27:28;;;;;;;27.8;20.1;;;;;;;3.72;72.48535;967.4333;;;;
2020/01/17 00:30:08;;;;;;;29.3;20.6;;;;;;;3.66;72.44141;967.3981;;;;
2020/01/17 00:37:21;;;;;;;29;19.9;;;;;;;3.72;70.6875;967.2714;;;;
2020/01/17 00:39:36;;;;;;;28.9;20.3;;;;;;;3.61;70.68066;967.2363;;;;
2020/01/17 00:41:59;;;;;;;28.5;20.7;;;;;;;3.58;70.54785;967.1842;;;;
2020/01/17 00:44:24;;;;;;;27.9;19.9;;;;;;;3.61;70.70215;967.1688;;;;
2020/01/17 00:46:49;;;;;;;27.8;19.2;;;;;;;3.55;71.2793;967.1926;;;;
2020/01/17 00:49:14;;;;;;;29.8;20.7;;;;;;;3.64;70.71973;967.1516;;;;
2020/01/17 00:51:39;;;;;;;31.2;22.2;;;;;;;3.72;70.75488;967.216;;;;
2020/01/17 00:54:04;;;;;;;36.3;22.2;;;;;;;3.48;71.43164;967.1912;;;;
2020/01/17 00:56:29;;;;;;;32.4;23.3;;;;;;;3.55;71.32617;967.1487;;;;
2020/01/17 00:58:54;;;;;;;33.1;23;;;;;;;3.25;72.57715;967.0258;;;;
2020/01/17 01:01:20;;;;;;;31.4;21.8;;;;;;;3.11;72.94629;967.0048;;;;
2020/01/17 01:03:45;;;;;;;28.2;21.2;;;;;;;3.18;72.70508;966.9568;;;;
2020/01/17 01:06:10;;;;;;;30.1;20.5;;;;;;;3.29;72.18066;966.9583;;;;
2020/01/17 01:08:35;;;;;;;33.4;21.6;;;;;;;3.43;71.06348;966.9412;;;;
2020/01/17 01:11:00;;;;;;;31.5;22.9;;;;;;;3.48;71.0957;966.9211;;;;
2020/01/17 01:13:25;;;;;;;28.8;21.1;;;;;;;3.27;71.41602;966.9012;;;;
2020/01/17 01:15:50;;;;;;;31.6;21.7;;;;;;;3.33;71.56641;966.8911;;;;
2020/01/17 01:18:15;;;;;;;30.1;21.1;;;;;;;3.24;71.38867;966.907;;;;
2020/01/17 01:20:40;;;;;;;26.7;20.5;;;;;;;3.13;71.53223;966.9207;;;;
2020/01/17 01:23:05;;;;;;;25.2;19.4;;;;;;;3.1;71.41309;966.8965;;;;
2020/01/17 01:25:31;;;;;;;27.2;19.4;;;;;;;3.14;71.31641;966.8221;;;;
2020/01/17 01:27:56;;;;;;;26.5;19.5;;;;;;;3.11;71.30078;966.7869;;;;
2020/01/17 01:30:21;;;;;;;31.1;21.2;;;;;;;3.18;71;966.7921;;;;
2020/01/17 01:32:46;;;;;;;29.9;21.2;;;;;;;3.26;70.94336;966.8258;;;;
2020/01/17 01:35:11;;;;;;;35.9;24.1;;;;;;;3.22;71.57129;966.8976;;;;
2020/01/17 01:37:36;;;;;;;35.4;25.5;;;;;;;3.01;72.80273;966.8784;;;;
2020/01/17 01:40:01;;;;;;;30.6;21.9;;;;;;;2.89;73.03613;966.8794;;;;
2020/01/17 01:42:26;;;;;;;29.3;21.1;;;;;;;2.79;73.12207;966.8705;;;;
2020/01/17 01:44:51;;;;;;;30.5;21.2;;;;;;;2.76;73.20801;966.8779;;;;
2020/01/17 01:47:17;;;;;;;32.4;21.9;;;;;;;2.87;72.80176;966.8699;;;;
2020/01/17 01:49:42;;;;;;;29.1;20.3;;;;;;;2.86;72.45313;966.7544;;;;
2020/01/17 01:52:07;;;;;;;29.6;21.2;;;;;;;2.81;72.43262;966.7703;;;;
2020/01/17 01:54:32;;;;;;;28.2;20.1;;;;;;;2.71;72.65918;966.7667;;;;
2020/01/17 01:56:57;;;;;;;30.4;21.1;;;;;;;2.71;72.49707;966.6978;;;;
2020/01/17 01:59:22;;;;;;;28.5;20.2;;;;;;;2.79;72.09766;966.6802;;;;
2020/01/17 02:01:47;;;;;;;28.7;20.5;;;;;;;2.83;71.79297;966.6411;;;;
2020/01/17 02:04:12;;;;;;;32.2;22.3;;;;;;;2.68;72.76953;966.6677;;;;
2020/01/17 02:06:38;;;;;;;32.1;22.1;;;;;;;2.86;71.98145;966.5928;;;;
2020/01/17 02:09:03;;;;;;;34.1;23.5;;;;;;;2.85;72.05078;966.5849;;;;
2020/01/17 02:11:46;;;;;;;30.5;21.4;;;;;;;2.85;72.26953;966.4606;;;;
2020/01/17 02:14:11;;;;;;;28.2;20.5;;;;;;;2.77;72.31152;966.4404;;;;
2020/01/17 02:16:36;;;;;;;31.5;22.5;;;;;;;2.73;72.54785;966.4688;;;;
2020/01/17 02:19:01;;;;;;;32.4;22.7;;;;;;;2.75;72.89453;966.4347;;;;
2020/01/17 02:21:26;;;;;;;31.4;20.6;;;;;;;2.67;73.51465;966.4103;;;;
2020/01/17 02:23:51;;;;;;;29.4;19.9;;;;;;;2.54;74.01074;966.3995;;;;
2020/01/17 02:26:16;;;;;;;28.3;20.5;;;;;;;2.37;74.64746;966.4222;;;;
2020/01/17 02:28:42;;;;;;;26.7;19.1;;;;;;;2.48;74.10254;966.4095;;;;
2020/01/17 02:31:12;;;;;;;29;20;;;;;;;2.55;73.71387;966.3873;;;;
2020/01/17 02:33:39;;;;;;;27.4;19.6;;;;;;;2.58;73.2793;966.3519;;;;
2020/01/17 02:36:44;;;;;;;29.5;20.9;;;;;;;2.58;73.37305;966.3077;;;;
2020/01/17 02:43:16;;;;;;;30.1;20.8;;;;;;;2.69;72.68945;966.3969;;;;
2020/01/17 02:45:37;;;;;;;30.8;21.3;;;;;;;2.75;72.63086;966.3471;;;;
2020/01/17 02:48:02;;;;;;;28.8;19.8;;;;;;;2.68;72.51563;966.3589;;;;
2020/01/17 02:50:27;;;;;;;29.3;20.2;;;;;;;2.68;72.21777;966.3649;;;;
2020/01/17 02:52:52;;;;;;;30.4;20.4;;;;;;;2.67;72.35254;966.3614;;;;
2020/01/17 02:55:17;;;;;;;29.5;19.9;;;;;;;2.61;72.52637;966.3791;;;;
2020/01/17 02:57:42;;;;;;;30.1;21.6;;;;;;;2.73;71.77441;966.3597;;;;
2020/01/17 03:00:07;;;;;;;28.3;21.3;;;;;;;2.73;72.4082;966.342;;;;
2020/01/17 03:02:32;;;;;;;29.6;21;;;;;;;2.79;72.25879;966.3395;;;;
2020/01/17 03:04:57;;;;;;;29.3;20.6;;;;;;;2.79;72.10938;966.2728;;;;
2020/01/17 03:07:22;;;;;;;29.3;20.5;;;;;;;2.72;71.96875;966.2806;;;;
2020/01/17 03:09:47;;;;;;;28.8;20;;;;;;;2.57;72.6123;966.2676;;;;
2020/01/17 03:12:13;;;;;;;29.6;20.4;;;;;;;2.68;71.76758;966.2392;;;;
2020/01/17 03:14:38;;;;;;;29;20.8;;;;;;;2.74;72.01953;966.259;;;;
2020/01/17 03:17:03;;;;;;;28.4;20.2;;;;;;;2.58;72.64844;966.2764;;;;
2020/01/17 03:19:28;;;;;;;28;20;;;;;;;2.52;72.95996;966.2197;;;;
2020/01/17 03:21:53;;;;;;;29.4;21;;;;;;;2.57;72.84277;966.1754;;;;
2020/01/17 03:24:18;;;;;;;31.6;20.7;;;;;;;2.55;73.03516;966.2042;;;;
2020/01/17 03:26:43;;;;;;;27.4;20;;;;;;;2.53;73.04199;966.1906;;;;
2020/01/17 03:29:08;;;;;;;30.3;21.6;;;;;;;2.39;74.23633;966.1437;;;;
2020/01/17 03:31:33;;;;;;;29.1;20.8;;;;;;;2.31;74.49902;966.0963;;;;
2020/01/17 03:33:58;;;;;;;33.1;20.6;;;;;;;2.33;74.4668;966.1472;;;;
2020/01/17 03:36:23;;;;;;;29.3;20.3;;;;;;;2.27;74.95215;966.1414;;;;
2020/01/17 03:38:48;;;;;;;27.4;19.3;;;;;;;2.19;75.02832;966.1336;;;;
2020/01/17 03:41:14;;;;;;;25.4;19.3;;;;;;;2.28;74.43457;966.159;;;;
2020/01/17 03:43:39;;;;;;;29.3;20.7;;;;;;;2.31;74.39551;966.0834;;;;
2020/01/17 03:46:04;;;;;;;27.5;18.4;;;;;;;2.29;74.42676;966.0953;;;;
2020/01/17 03:48:29;;;;;;;27.4;18.9;;;;;;;2.19;74.44434;966.0906;;;;
2020/01/17 03:50:54;;;;;;;25.5;18.2;;;;;;;2.25;73.87891;966.0417;;;;
2020/01/17 03:53:19;;;;;;;22.4;17.3;;;;;;;2.29;73.48535;966.0294;;;;
2020/01/17 03:55:44;;;;;;;24.2;16.3;;;;;;;2.22;74.14941;966.0316;;;;
2020/01/17 03:58:09;;;;;;;25.7;17.6;;;;;;;2.14;74.68652;965.9864;;;;
2020/01/17 04:02:26;;;;;;;24.4;17.6;;;;;;;2.21;74.48145;965.9868;;;;
2020/01/17 04:04:51;;;;;;;21.4;16.6;;;;;;;2.26;74.08887;965.9617;;;;
2020/01/17 04:07:16;;;;;;;22.7;16;;;;;;;2.22;74.16113;965.9601;;;;
2020/01/17 04:09:41;;;;;;;23.4;16.8;;;;;;;2.2;74.19141;965.9726;;;;
2020/01/17 04:12:06;;;;;;;23.1;16.4;;;;;;;2.2;73.98438;965.9774;;;;
2020/01/17 04:14:31;;;;;;;22.9;15.7;;;;;;;2.26;72.96191;965.9998;;;;
2020/01/17 04:16:56;;;;;;;24.2;16.2;;;;;;;2.22;73.09277;965.9247;;;;
2020/01/17 04:19:21;;;;;;;22.4;16.2;;;;;;;2.23;73.88574;965.968;;;;
2020/01/17 04:21:47;;;;;;;24.4;16.5;;;;;;;2.28;73.81543;965.9269;;;;
2020/01/17 04:24:12;;;;;;;20.3;15.7;;;;;;;2.31;73.15332;965.9645;;;;
2020/01/17 04:26:37;;;;;;;22.2;16.5;;;;;;;2.26;73.50098;965.9462;;;;
2020/01/17 04:29:02;;;;;;;20.6;15.5;;;;;;;2.31;73.15332;965.9517;;;;
2020/01/17 04:31:27;;;;;;;21.1;15.8;;;;;;;2.4;73.19141;965.8819;;;;
2020/01/17 04:34:35;;;;;;;24.8;17.1;;;;;;;2.52;71.99414;965.9001;;;;
2020/01/17 04:37:00;;;;;;;23.3;17.7;;;;;;;2.47;71.82324;965.9216;;;;
2020/01/17 04:39:35;;;;;;;20.8;16.3;;;;;;;2.32;73.2373;965.933;;;;
2020/01/17 04:41:58;;;;;;;24.2;15.9;;;;;;;2.3;73.3125;965.9258;;;;
2020/01/17 04:44:15;;;;;;;21.4;15.4;;;;;;;2.33;73.22754;965.9272;;;;
2020/01/17 04:46:40;;;;;;;21.8;15.4;;;;;;;2.28;72.86035;965.8724;;;;
2020/01/17 04:49:05;;;;;;;22.2;16.3;;;;;;;2.28;72.27344;965.8412;;;;
2020/01/17 04:51:30;;;;;;;26;18.1;;;;;;;2.24;72.55469;965.8359;;;;
2020/01/17 04:53:56;;;;;;;23.5;16.9;;;;;;;2.21;72.99902;965.8222;;;;
2020/01/17 04:56:21;;;;;;;21.9;16.2;;;;;;;2.12;73.39746;965.8398;;;;
2020/01/17 04:58:46;;;;;;;21.9;16.5;;;;;;;2.11;73.54395;965.7988;;;;
2020/01/17 05:01:11;;;;;;;24.8;16.2;;;;;;;1.94;74.41113;965.8217;;;;
2020/01/17 05:03:36;;;;;;;21.1;15.8;;;;;;;1.91;74.25684;965.7976;;;;
2020/01/17 05:06:01;;;;;;;20;14.8;;;;;;;1.82;74.55176;965.723;;;;
2020/01/17 05:08:26;;;;;;;19.2;14.8;;;;;;;1.79;74.71777;965.7776;;;;
2020/01/17 05:10:51;;;;;;;19.7;13.6;;;;;;;1.81;75.05371;965.7516;;;;
2020/01/17 05:13:16;;;;;;;18.8;14.1;;;;;;;1.85;74.78418;965.7618;;;;
2020/01/17 05:15:41;;;;;;;23.1;14;;;;;;;1.91;75.15234;965.7406;;;;
2020/01/17 05:18:06;;;;;;;18.8;13.6;;;;;;;2.03;74.28809;965.7327;;;;
2020/01/17 05:20:32;;;;;;;16.8;13.5;;;;;;;2.02;74.26563;965.6824;;;;
2020/01/17 05:22:57;;;;;;;18.8;13.4;;;;;;;1.99;74.82227;965.7015;;;;
2020/01/17 05:25:22;;;;;;;17.1;12.6;;;;;;;2.01;74.60742;965.7604;;;;
2020/01/17 05:27:47;;;;;;;17.7;12.6;;;;;;;2.02;74.49512;965.7392;;;;
2020/01/17 05:30:12;;;;;;;17.2;12.7;;;;;;;2.09;74.3584;965.7164;;;;
2020/01/17 05:32:37;;;;;;;15.9;12;;;;;;;2.12;74.23438;965.6915;;;;
2020/01/17 05:35:02;;;;;;;15.7;12.3;;;;;;;2.21;73.67676;965.7083;;;;
2020/01/17 05:37:27;;;;;;;18.6;13.6;;;;;;;2.25;73.00488;965.663;;;;
2020/01/17 05:39:52;;;;;;;19.7;14.3;;;;;;;2.25;72.90137;965.7425;;;;
2020/01/17 05:42:18;;;;;;;21.8;14.5;;;;;;;2.17;73.1748;965.7344;;;;
2020/01/17 05:44:43;;;;;;;18.8;13.9;;;;;;;2.1;73.4502;965.7332;;;;
2020/01/17 05:47:08;;;;;;;17.2;13.4;;;;;;;2.08;73.57324;965.7804;;;;
2020/01/17 05:49:33;;;;;;;20.3;13.8;;;;;;;2.03;73.83984;965.7672;;;;
2020/01/17 05:51:58;;;;;;;19.9;13.4;;;;;;;2.06;73.70703;965.8088;;;;
2020/01/17 05:54:23;;;;;;;17.9;12.6;;;;;;;1.93;74.04199;965.8082;;;;
2020/01/17 05:56:48;;;;;;;16.7;13.7;;;;;;;1.91;74.66992;965.7728;;;;
2020/01/17 05:59:13;;;;;;;18;11.9;;;;;;;1.94;74.12402;965.7366;;;;
2020/01/17 06:01:38;;;;;;;16.6;12.5;;;;;;;1.87;74.14453;965.7595;;;;
2020/01/17 06:04:03;;;;;;;14.9;11.4;;;;;;;1.96;73.81641;965.7355;;;;
2020/01/17 06:06:29;;;;;;;16;12;;;;;;;1.96;73.88574;965.6955;;;;
2020/01/17 06:08:54;;;;;;;17.6;11.7;;;;;;;1.83;74.33496;965.6883;;;;
2020/01/17 06:11:19;;;;;;;17.9;13.2;;;;;;;1.85;74.46289;965.688;;;;
2020/01/17 06:13:44;;;;;;;16.7;13.2;;;;;;;1.98;74.19824;965.714;;;;
2020/01/17 06:16:09;;;;;;;17.2;13.8;;;;;;;1.93;74.01855;965.6711;;;;
2020/01/17 06:18:34;;;;;;;18.2;14.5;;;;;;;1.9;74.26563;965.6303;;;;
2020/01/17 06:20:59;;;;;;;18;13.4;;;;;;;1.91;74.60156;965.6403;;;;
2020/01/17 06:23:24;;;;;;;19.6;14.9;;;;;;;1.92;74.13086;965.6146;;;;
2020/01/17 06:25:49;;;;;;;20.4;15.7;;;;;;;1.96;74.08105;965.6512;;;;
2020/01/17 06:28:14;;;;;;;20;15.2;;;;;;;1.99;73.91504;965.6367;;;;
2020/01/17 06:30:39;;;;;;;20.7;15.3;;;;;;;1.91;74.91113;965.6468;;;;
2020/01/17 06:33:04;;;;;;;18.3;14.2;;;;;;;1.99;73.94727;965.6191;;;;
2020/01/17 06:35:29;;;;;;;18.4;14.2;;;;;;;1.97;73.58789;965.6308;;;;
2020/01/17 06:37:55;;;;;;;19.1;13.9;;;;;;;1.93;73.41016;965.6069;;;;
2020/01/17 06:40:21;;;;;;;17.9;13.5;;;;;;;1.97;74.03613;965.6282;;;;
2020/01/17 06:48:10;;;;;;;18.3;12.9;;;;;;;1.85;73.45508;965.5472;;;;
2020/01/17 06:50:01;;;;;;;15.9;12.5;;;;;;;1.93;73.08984;965.5306;;;;
2020/01/17 06:52:26;;;;;;;16.4;12;;;;;;;1.91;73.34961;965.5499;;;;
2020/01/17 06:54:51;;;;;;;17.3;13.3;;;;;;;1.98;72.80859;965.519;;;;
2020/01/17 06:57:16;;;;;;;19.3;14;;;;;;;1.97;73.2207;965.4686;;;;
2020/01/17 06:59:41;;;;;;;19.8;13.8;;;;;;;1.98;72.76465;965.4836;;;;
2020/01/17 07:02:06;;;;;;;19.4;13.5;;;;;;;1.87;73.04199;965.49;;;;
2020/01/17 07:04:32;;;;;;;20;12.9;;;;;;;2.07;72.60742;965.4941;;;;
2020/01/17 07:06:57;;;;;;;17.9;13;;;;;;;2.03;71.77344;965.5561;;;;
2020/01/17 07:09:22;;;;;;;17.3;12.4;;;;;;;1.98;71.75195;965.6057;;;;
2020/01/17 07:11:47;;;;;;;16.2;12.4;;;;;;;1.99;71.70898;965.5926;;;;
2020/01/17 07:14:12;;;;;;;17.8;13;;;;;;;1.94;72.1709;965.6275;;;;
2020/01/17 07:16:37;;;;;;;16.7;12.9;;;;;;;1.93;72.3877;965.6445;;;;
2020/01/17 07:19:03;;;;;;;17.3;12.6;;;;;;;1.92;71.89063;965.6331;;;;
2020/01/17 07:21:28;;;;;;;17;12.4;;;;;;;2.02;71.41602;965.6654;;;;
2020/01/17 07:23:53;;;;;;;16.7;12.4;;;;;;;2.13;71.3418;965.7216;;;;
2020/01/17 07:26:18;;;;;;;17.5;12.2;;;;;;;3.09;68.2207;965.6747;;;;
2020/01/17 07:28:43;;;;;;;17.6;12;;;;;;;3.78;65.6543;965.7375;;;;
2020/01/17 07:31:08;;;;;;;16.5;12.4;;;;;;;4.26;63.56934;965.6923;;;;
2020/01/17 07:33:33;;;;;;;16.4;11.8;;;;;;;4.7;61.67969;965.6486;;;;
2020/01/17 07:35:58;;;;;;;16.3;11.7;;;;;;;4.07;63.78223;965.7154;;;;
2020/01/17 07:38:23;;;;;;;17;11.6;;;;;;;4.22;63.47168;965.7076;;;;
2020/01/17 07:40:49;;;;;;;16.2;11.9;;;;;;;4.96;61.08105;965.6498;;;;
2020/01/17 07:43:14;;;;;;;16.2;11.5;;;;;;;5.76;58.37988;965.5977;;;;
2020/01/17 07:45:39;;;;;;;16.7;11.7;;;;;;;6.68;55.57813;965.5452;;;;
2020/01/17 07:48:04;;;;;;;15.8;12.1;;;;;;;7.15;53.73242;965.5754;;;;
2020/01/17 07:50:29;;;;;;;15.7;10.9;;;;;;;7.68;52.13379;965.6046;;;;
2020/01/17 07:52:54;;;;;;;19.4;12.1;;;;;;;7.83;51.52344;965.5411;;;;
2020/01/17 07:55:19;;;;;;;15.3;11.9;;;;;;;7.41;53.1123;965.537;;;;
2020/01/17 07:57:44;;;;;;;17.3;12.4;;;;;;;7.13;54.56641;965.5355;;;;
2020/01/17 08:00:09;;;;;;;15.1;11.5;;;;;;;6.86;54.97461;965.5302;;;;
2020/01/17 08:02:35;;;;;;;17.9;12.4;;;;;;;6.65;55.80762;965.5195;;;;
2020/01/17 08:05:00;;;;;;;16.5;12.4;;;;;;;6.8;55.71094;965.4972;;;;
2020/01/17 08:07:25;;;;;;;16.7;13.4;;;;;;;6.96;55.68359;965.4738;;;;
2020/01/17 08:09:50;;;;;;;19.5;13.7;;;;;;;7.12;54.86816;965.4589;;;;
2020/01/17 08:12:15;;;;;;;17.9;13;;;;;;;7.71;53.18555;965.4289;;;;
2020/01/17 08:14:40;;;;;;;20.1;14.2;;;;;;;8.79;50.79785;965.4722;;;;
2020/01/17 08:17:06;;;;;;;21.9;15.6;;;;;;;8.27;52.47363;965.457;;;;
2020/01/17 08:19:31;;;;;;;18.8;14.2;;;;;;;7.65;54.57422;965.4709;;;;
2020/01/17 08:21:56;;;;;;;22.5;16.5;;;;;;;7.12;56.87988;965.3724;;;;
2020/01/17 08:24:21;;;;;;;23.5;16.7;;;;;;;7.96;55.23242;965.4461;;;;
2020/01/17 08:26:46;;;;;;;22.7;15.7;;;;;;;8.99;52.08203;965.3741;;;;
2020/01/17 08:29:11;;;;;;;21.9;15.8;;;;;;;8.83;52.46094;965.3052;;;;
2020/01/17 08:31:36;;;;;;;27.6;18;;;;;;;8.99;53.00586;965.3333;;;;
2020/01/17 08:34:01;;;;;;;24.2;16.6;;;;;;;10.39;48.97168;965.312;;;;
2020/01/17 08:36:26;;;;;;;22;16;;;;;;;11.83;45.50195;965.2925;;;;
2020/01/17 08:38:51;;;;;;;20.7;15.2;;;;;;;13.8;40.79688;965.2147;;;;
2020/01/17 08:41:17;;;;;;;21.4;15.1;;;;;;;16.31;35.17676;965.2083;;;;
2020/01/17 08:43:42;;;;;;;22.2;15.4;;;;;;;17.73;32.41992;965.1437;;;;
2020/01/17 08:46:20;;;;;;;22;14.2;;;;;;;18.83;30.3623;965.1595;;;;
2020/01/17 08:51:09;;;;;;;18.7;13.1;;;;;;;19.52;29.33398;965.128;;;;
2020/01/17 08:53:38;;;;;;;18.2;14;;;;;;;21.08;27.44336;965.1486;;;;
2020/01/17 08:55:50;;;;;;;20.9;14.3;;;;;;;21.44;26.7207;965.0956;;;;
2020/01/17 08:58:13;;;;;;;17.3;13.2;;;;;;;22.01;26.2627;965.1328;;;;
2020/01/17 09:00:38;;;;;;;20.7;13;;;;;;;22.77;25.3916;965.0516;;;;
2020/01/17 09:03:03;;;;;;;19.1;13.4;;;;;;;23.38;24.36523;965.0251;;;;
2020/01/17 09:05:28;;;;;;;16.2;12.9;;;;;;;20.24;28.72168;964.8511;;;;
2020/01/17 09:07:53;;;;;;;18.4;12.9;;;;;;;16.5;35.78711;964.9135;;;;
2020/01/17 09:10:18;;;;;;;17.4;13.1;;;;;;;14.22;40.87207;964.8898;;;;
2020/01/17 09:12:43;;;;;;;16.2;12;;;;;;;12.96;44.88965;964.959;;;;
2020/01/17 09:15:08;;;;;;;17.1;12.2;;;;;;;12.68;46.60449;964.9194;;;;
2020/01/17 09:17:34;;;;;;;14.3;11.5;;;;;;;12.28;47.91406;964.9166;;;;
2020/01/17 09:19:59;;;;;;;15;11.3;;;;;;;11.69;49.69434;964.9095;;;;
2020/01/17 09:22:24;;;;;;;16.1;11.2;;;;;;;11.4;50.88184;964.89;;;;
2020/01/17 09:24:49;;;;;;;14.4;11.6;;;;;;;11.44;50.8877;964.8799;;;;
2020/01/17 09:27:14;;;;;;;18.7;12.1;;;;;;;10.88;52.73438;964.9355;;;;
2020/01/17 09:29:39;;;;;;;15.2;11.1;;;;;;;11;52.47852;965.0009;;;;
2020/01/17 09:32:04;;;;;;;15.7;12.4;;;;;;;10.86;53.04785;965.0134;;;;
2020/01/17 09:34:30;;;;;;;14.2;10.1;;;;;;;10.68;53.9873;964.9459;;;;
2020/01/17 09:36:55;;;;;;;14.1;10.4;;;;;;;10.57;54.73535;964.9984;;;;
2020/01/17 09:39:20;;;;;;;14.7;10.8;;;;;;;10.52;55.2334;965.0096;;;;
2020/01/17 09:41:45;;;;;;;12.7;10.1;;;;;;;10.48;56.25781;964.9691;;;;
2020/01/17 09:44:10;;;;;;;14.8;9.3;;;;;;;10.62;55.45605;964.9156;;;;
2020/01/17 09:46:35;;;;;;;13;8.9;;;;;;;10.69;55.47754;964.9141;;;;
2020/01/17 09:49:00;;;;;;;13.4;9;;;;;;;10.67;55.7793;964.9073;;;;
2020/01/17 09:51:26;;;;;;;12.3;9.2;;;;;;;10.85;55.37012;964.9186;;;;
2020/01/17 09:53:51;;;;;;;10.5;8;;;;;;;10.79;55.40625;964.8782;;;;
2020/01/17 09:56:16;;;;;;;10.9;7.6;;;;;;;10.65;55.57715;964.9004;;;;
2020/01/17 09:58:41;;;;;;;11.6;7.3;;;;;;;10.65;55.81152;964.8378;;;;
2020/01/17 10:01:06;;;;;;;11.5;7;;;;;;;10.69;55.87598;964.8344;;;;
2020/01/17 10:03:31;;;;;;;10.1;6.7;;;;;;;10.66;56.4707;964.8096;;;;
2020/01/17 10:05:56;;;;;;;9.7;6.7;;;;;;;10.58;56.28418;964.7894;;;;
2020/01/17 10:08:21;;;;;;;9.3;6.4;;;;;;;10.72;56.06738;964.7822;;;;
2020/01/17 10:10:47;;;;;;;13.1;5.9;;;;;;;10.75;55.62598;964.6809;;;;
2020/01/17 10:13:12;;;;;;;8.6;5.8;;;;;;;10.7;55.68945;964.715;;;;
2020/01/17 10:15:37;;;;;;;10;5.5;;;;;;;10.73;55.56445;964.7905;;;;
2020/01/17 10:18:02;;;;;;;9.6;5.4;;;;;;;10.61;55.6084;964.7733;;;;
2020/01/17 10:20:27;;;;;;;6.9;5.2;;;;;;;10.72;55.60938;964.7411;;;;
2020/01/17 10:22:52;;;;;;;10.1;5;;;;;;;10.78;55.39453;964.6838;;;;
2020/01/17 10:25:18;;;;;;;7.6;4.5;;;;;;;10.86;55.12402;964.6758;;;;
2020/01/17 10:27:43;;;;;;;7.2;4.5;;;;;;;10.68;55.14648;964.6793;;;;
2020/01/17 10:30:08;;;;;;;8.4;4.5;;;;;;;10.81;55.60938;964.6658;;;;
2020/01/17 10:32:33;;;;;;;6.7;4.6;;;;;;;10.91;54.67285;964.6172;;;;
2020/01/17 10:36:32;;;;;;;8.9;4.1;;;;;;;10.74;54.75586;964.6714;;;;
2020/01/17 10:38:57;;;;;;;7.5;4;;;;;;;10.82;53.89941;964.5787;;;;
2020/01/17 10:41:22;;;;;;;7.7;4;;;;;;;10.88;54.12891;964.5333;;;;
2020/01/17 10:43:47;;;;;;;9.2;4.2;;;;;;;10.99;54.44922;964.5733;;;;
2020/01/17 10:46:12;;;;;;;7.8;3.9;;;;;;;10.9;54.02637;964.4817;;;;
2020/01/17 10:48:38;;;;;;;7.9;4;;;;;;;10.84;53.83008;964.4437;;;;
2020/01/17 10:51:03;;;;;;;6.9;3.8;;;;;;;10.83;53.63086;964.4203;;;;
2020/01/17 10:53:28;;;;;;;7.6;4;;;;;;;10.83;53.88867;964.3714;;;;
2020/01/17 10:55:53;;;;;;;8.5;3.8;;;;;;;10.86;53.7041;964.4176;;;;
2020/01/17 10:58:18;;;;;;;6.6;3.4;;;;;;;10.66;53.89063;964.3283;;;;
2020/01/17 11:00:43;;;;;;;5.5;3.7;;;;;;;10.64;53.81738;964.3011;;;;
2020/01/17 11:03:08;;;;;;;7.6;3.8;;;;;;;10.68;53.69336;964.319;;;;
2020/01/17 11:05:38;;;;;;;5.5;3.5;;;;;;;10.63;53.44141;964.2576;;;;
2020/01/17 11:10:38;;;;;;;10.1;3.7;;;;;;;10.77;53.23633;964.1769;;;;
2020/01/17 11:12:53;;;;;;;7.5;3.6;;;;;;;10.64;53.00879;964.1325;;;;
2020/01/17 11:15:14;;;;;;;6.9;3.6;;;;;;;10.65;52.99707;964.1273;;;;
2020/01/17 11:17:39;;;;;;;7.5;3.6;;;;;;;10.75;53.16406;964.1237;;;;
2020/01/17 11:20:04;;;;;;;8.7;3.7;;;;;;;10.79;53.16797;964.0732;;;;
2020/01/17 11:22:29;;;;;;;10.7;3.8;;;;;;;10.86;52.66016;964.0813;;;;
2020/01/17 11:24:54;;;;;;;7.6;3.6;;;;;;;10.98;52.78125;964.0314;;;;
2020/01/17 11:27:19;;;;;;;6.6;3.4;;;;;;;11.07;52.24121;963.9917;;;;
2020/01/17 11:29:44;;;;;;;5.3;3.4;;;;;;;10.99;52.19531;963.9459;;;;
2020/01/17 11:32:09;;;;;;;6;3.2;;;;;;;10.97;52.14551;963.8873;;;;
2020/01/17 11:34:34;;;;;;;4.5;3.1;;;;;;;10.96;52.11035;963.8574;;;;
2020/01/17 11:36:59;;;;;;;7.2;3.4;;;;;;;11.07;52.56934;963.835;;;;
2020/01/17 11:39:25;;;;;;;5.6;2.9;;;;;;;11.09;52.00879;963.8683;;;;
2020/01/17 11:41:49;;;;;;;4.9;3;;;;;;;11.09;51.82031;963.8572;;;;
2020/01/17 11:44:15;;;;;;;5;3.3;;;;;;;11.1;52.23145;963.8577;;;;
2020/01/17 11:46:40;;;;;;;4.7;3;;;;;;;11.09;51.89063;963.8499;;;;
2020/01/17 11:49:05;;;;;;;6.2;3;;;;;;;11.1;52.02051;963.8407;;;;
2020/01/17 11:51:30;;;;;;;6.4;3.1;;;;;;;11.05;52.12109;963.8043;;;;
2020/01/17 11:53:55;;;;;;;6.3;2.7;;;;;;;11.15;52.09766;963.8114;;;;
2020/01/17 11:56:20;;;;;;;6.7;3;;;;;;;11.4;51.87012;963.8095;;;;
2020/01/17 11:58:46;;;;;;;5.4;2.7;;;;;;;11.62;50.95605;963.7611;;;;
2020/01/17 12:01:11;;;;;;;5.9;2.9;;;;;;;11.76;50.04395;963.7262;;;;
2020/01/17 12:03:36;;;;;;;4.6;2.4;;;;;;;11.99;49.55176;963.7317;;;;
2020/01/17 12:06:01;;;;;;;6;2.9;;;;;;;12.29;48.89258;963.7136;;;;
2020/01/17 12:08:26;;;;;;;4.5;2.8;;;;;;;12.49;48.41992;963.6456;;;;
2020/01/17 12:10:51;;;;;;;6.9;3.6;;;;;;;12.81;48.93945;963.58;;;;
2020/01/17 12:13:16;;;;;;;4.5;2.7;;;;;;;12.96;47.05859;963.541;;;;
2020/01/17 12:15:51;;;;;;;4.4;2.4;;;;;;;13.17;46.53906;963.5171;;;;
2020/01/17 12:18:16;;;;;;;7.1;2.7;;;;;;;13.39;46.33887;963.5133;;;;
2020/01/17 12:20:31;;;;;;;4.3;2.3;;;;;;;13.37;45.92285;963.495;;;;
2020/01/17 12:22:57;;;;;;;7;2.4;;;;;;;13.37;45.35742;963.5251;;;;
2020/01/17 12:25:22;;;;;;;4.4;2.6;;;;;;;13.27;45.48828;963.4678;;;;
2020/01/17 12:27:47;;;;;;;4.9;2.2;;;;;;;13.24;45.49707;963.5245;;;;
2020/01/17 12:30:12;;;;;;;4.1;2.3;;;;;;;13.31;45.61133;963.4481;;;;
2020/01/17 12:32:37;;;;;;;4.3;2.3;;;;;;;13.37;45.37012;963.4238;;;;
2020/01/17 12:35:02;;;;;;;4.1;2.5;;;;;;;13.45;44.94043;963.4163;;;;
2020/01/17 12:37:27;;;;;;;5.2;2.4;;;;;;;13.53;44.78418;963.3883;;;;
2020/01/17 12:39:52;;;;;;;4.8;2.3;;;;;;;13.6;44.70898;963.3605;;;;
2020/01/17 12:42:17;;;;;;;5.3;2.4;;;;;;;13.78;44.77441;963.3486;;;;
2020/01/17 12:44:43;;;;;;;5;2.3;;;;;;;13.81;44.30469;963.32;;;;
2020/01/17 12:47:08;;;;;;;5;2.4;;;;;;;13.72;44.17871;963.2841;;;;
2020/01/17 12:49:33;;;;;;;5.4;2.3;;;;;;;13.7;44.51855;963.231;;;;
2020/01/17 12:51:58;;;;;;;7;2.3;;;;;;;13.91;44.70508;963.2511;;;;
2020/01/17 12:54:23;;;;;;;3.8;2.4;;;;;;;14.11;43.88574;963.2841;;;;
2020/01/17 12:56:48;;;;;;;6.3;2.4;;;;;;;14.09;43.80078;963.2358;;;;
2020/01/17 12:59:13;;;;;;;5.7;2.3;;;;;;;13.88;44.09961;963.1669;;;;
2020/01/17 13:01:39;;;;;;;6.3;2.5;;;;;;;13.73;44.33301;963.199;;;;
2020/01/17 13:04:04;;;;;;;6.5;2.6;;;;;;;13.42;45.52734;963.1833;;;;
2020/01/17 13:06:33;;;;;;;5.6;2.6;;;;;;;13.56;45.27051;963.1456;;;;
2020/01/17 13:09:19;;;;;;;4;2.1;;;;;;;13.57;45.36523;963.136;;;;
2020/01/17 13:14:07;;;;;;;4.6;2.2;;;;;;;13.38;45.65234;963.1939;;;;
2020/01/17 13:16:16;;;;;;;4.8;2.4;;;;;;;13.32;46.11914;963.2153;;;;
2020/01/17 13:18:35;;;;;;;5.7;2.6;;;;;;;13.18;46.04492;963.1858;;;;
2020/01/17 13:20:59;;;;;;;5.3;2.2;;;;;;;13.13;46.75977;963.1881;;;;
2020/01/17 13:23:24;;;;;;;7.5;2.4;;;;;;;12.97;46.91992;963.1827;;;;
2020/01/17 13:25:49;;;;;;;9;2.6;;;;;;;12.7;47.24316;963.2486;;;;
2020/01/17 13:28:14;;;;;;;4.2;2.3;;;;;;;12.7;47.41992;963.2509;;;;
2020/01/17 13:30:39;;;;;;;4;2.2;;;;;;;12.68;47.68848;963.2584;;;;
2020/01/17 13:33:04;;;;;;;3.5;2.2;;;;;;;12.63;47.7998;963.1298;;;;
2020/01/17 13:35:29;;;;;;;4.2;2.2;;;;;;;12.62;48.07031;963.1667;;;;
2020/01/17 13:37:55;;;;;;;5.5;2;;;;;;;12.69;48.06543;963.1781;;;;
2020/01/17 13:40:20;;;;;;;4.4;2.4;;;;;;;12.63;48.05957;963.1847;;;;
2020/01/17 13:42:45;;;;;;;4.6;2.3;;;;;;;12.38;48.29102;963.1415;;;;
2020/01/17 13:45:10;;;;;;;4.3;2.3;;;;;;;12.45;48.29883;963.0828;;;;
2020/01/17 13:47:35;;;;;;;3.8;2.3;;;;;;;12.43;48.46094;963.0818;;;;
2020/01/17 13:50:00;;;;;;;2.8;1.9;;;;;;;12.53;48.21289;963.0297;;;;
2020/01/17 13:52:25;;;;;;;4.1;2.5;;;;;;;12.55;47.83887;963.0143;;;;
2020/01/17 13:54:51;;;;;;;8.3;2.5;;;;;;;12.58;48.06641;963.0552;;;;
2020/01/17 13:57:16;;;;;;;6.1;2.4;;;;;;;12.65;47.54297;962.959;;;;
2020/01/17 13:59:41;;;;;;;3;2.1;;;;;;;12.77;47.3916;962.9221;;;;
2020/01/17 14:02:06;;;;;;;5.4;2.4;;;;;;;12.68;47.32324;962.9537;;;;
2020/01/17 14:04:31;;;;;;;6;2.6;;;;;;;12.63;47.49414;963.0165;;;;
2020/01/17 14:06:56;;;;;;;5.3;2.4;;;;;;;12.43;47.17871;962.9696;;;;
2020/01/17 14:09:21;;;;;;;4.5;2.1;;;;;;;12.55;47.27441;962.9999;;;;
2020/01/17 14:11:46;;;;;;;5.1;2.6;;;;;;;12.53;47.24805;963.0695;;;;
2020/01/17 14:14:12;;;;;;;5.7;2.5;;;;;;;12.46;47.29883;963.0861;;;;
2020/01/17 14:16:37;;;;;;;5.5;2.5;;;;;;;12.57;47.32227;963.1093;;;;
2020/01/17 14:19:02;;;;;;;6.8;2.6;;;;;;;12.44;47.47266;963.072;;;;
2020/01/17 14:21:27;;;;;;;4.9;2.3;;;;;;;12.33;47.53223;963.0264;;;;
2020/01/17 14:23:52;;;;;;;5.6;2.3;;;;;;;12.26;47.72461;963.0201;;;;
2020/01/17 14:26:17;;;;;;;6.6;2.4;;;;;;;12.26;48.12402;963.0551;;;;
2020/01/17 14:28:42;;;;;;;4.1;2.2;;;;;;;12.23;48.0625;963.0605;;;;